Time;durP1;ratioP1;P1;durP2;ratioP2;P2;SDS_P1;SDS_P2;PMS_P1;PMS_P2;Temp;Humidity;BMP_temperature;BMP_pressure;BME280_temperature;BME280_humidity;BME280_pressure;Samples;Min_cycle;Max_cycle;Signal;HPM_P1;HPM_P2
2023/08/14 00:00:54;;;;;;;4.78;1.73;;;;;;;;;;5065716;28;20384;-71
2023/08/14 00:03:22;;;;;;;5.75;1.48;;;;;;;;;;5067360;28;20049;-71
2023/08/14 00:05:49;;;;;;;2.85;1.60;;;;;;;;;;5066283;28;20052;-71
2023/08/14 00:08:16;;;;;;;8.07;1.70;;;;;;;;;;5060401;28;20484;-71
2023/08/14 00:10:43;;;;;;;5.07;1.77;;;;;;;;;;5064029;28;20064;-71
2023/08/14 00:13:12;;;;;;;4.13;2.00;;;;;;;;;;5068265;28;20472;-71
2023/08/14 00:15:39;;;;;;;4.20;2.13;;;;;;;;;;5057764;28;20488;-71
2023/08/14 00:18:07;;;;;;;3.72;2.10;;;;;;;;;;5068013;28;20045;-71
2023/08/14 00:20:34;;;;;;;5.80;2.40;;;;;;;;;;5067616;28;20048;-71
2023/08/14 00:23:01;;;;;;;4.90;1.90;;;;;;;;;;5065812;28;20044;-71
2023/08/14 00:25:29;;;;;;;6.68;2.05;;;;;;;;;;5062433;28;20052;-71
2023/08/14 00:27:56;;;;;;;5.35;2.10;;;;;;;;;;5067232;28;20051;-71
2023/08/14 00:30:25;;;;;;;3.85;2.25;;;;;;;;;;5068804;28;20044;-71
2023/08/14 00:32:52;;;;;;;5.05;2.40;;;;;;;;;;5068932;28;20052;-71
2023/08/14 00:35:19;;;;;;;3.90;1.90;;;;;;;;;;5067191;28;20135;-71
2023/08/14 00:37:47;;;;;;;5.65;2.20;;;;;;;;;;5063633;28;20054;-71
2023/08/14 00:40:15;;;;;;;4.70;2.30;;;;;;;;;;5059477;28;20039;-71
2023/08/14 00:42:43;;;;;;;5.60;2.30;;;;;;;;;;5068297;28;20041;-70
2023/08/14 00:45:11;;;;;;;3.53;2.15;;;;;;;;;;5060497;28;20052;-70
2023/08/14 00:47:41;;;;;;;3.08;1.90;;;;;;;;;;5057139;28;20052;-71
2023/08/14 00:50:09;;;;;;;7.60;2.10;;;;;;;;;;5057442;28;20135;-70
2023/08/14 00:52:37;;;;;;;4.00;2.22;;;;;;;;;;5058279;28;20057;-70
2023/08/14 00:55:07;;;;;;;4.28;2.13;;;;;;;;;;5063527;28;20091;-70
2023/08/14 00:57:35;;;;;;;3.60;2.13;;;;;;;;;;5060274;28;20234;-70
2023/08/14 01:00:05;;;;;;;7.00;2.60;;;;;;;;;;5067908;28;20048;-70
2023/08/14 01:02:32;;;;;;;5.05;2.25;;;;;;;;;;5055534;28;20084;-70
2023/08/14 01:05:01;;;;;;;3.53;2.15;;;;;;;;;;5067919;28;20480;-71
2023/08/14 01:07:29;;;;;;;4.72;2.33;;;;;;;;;;5062976;28;20055;-70
2023/08/14 01:09:57;;;;;;;4.00;2.08;;;;;;;;;;5065350;28;20407;-70
2023/08/14 01:12:30;;;;;;;6.53;2.03;;;;;;;;;;5068802;28;20037;-70
2023/08/14 01:14:59;;;;;;;4.85;2.08;;;;;;;;;;5062530;28;20203;-70
2023/08/14 01:17:28;;;;;;;5.57;2.20;;;;;;;;;;5063951;28;20101;-70
2023/08/14 01:19:57;;;;;;;4.95;2.10;;;;;;;;;;5062471;28;20492;-70
2023/08/14 01:22:31;;;;;;;3.65;2.25;;;;;;;;;;5066415;28;20040;-70
2023/08/14 01:25:19;;;;;;;7.80;2.47;;;;;;;;;;5068045;28;20048;-71
2023/08/14 01:27:47;;;;;;;4.72;2.20;;;;;;;;;;5061805;28;20048;-70
2023/08/14 01:30:14;;;;;;;4.93;2.53;;;;;;;;;;5063980;28;20055;-70
2023/08/14 01:32:41;;;;;;;4.63;2.63;;;;;;;;;;5067681;28;20064;-71
2023/08/14 01:35:09;;;;;;;4.45;2.20;;;;;;;;;;5067306;28;20372;-71
2023/08/14 01:37:42;;;;;;;7.78;2.50;;;;;;;;;;5064812;28;20048;-70
2023/08/14 01:40:13;;;;;;;4.03;2.33;;;;;;;;;;5056933;28;20063;-70
2023/08/14 01:42:40;;;;;;;4.65;2.42;;;;;;;;;;5066646;28;20048;-70
2023/08/14 01:45:09;;;;;;;4.78;2.78;;;;;;;;;;5061928;28;20044;-70
2023/08/14 01:47:36;;;;;;;6.03;2.40;;;;;;;;;;5058453;28;20053;-71
2023/08/14 01:50:03;;;;;;;4.10;2.28;;;;;;;;;;5063882;28;20044;-71
2023/08/14 01:52:31;;;;;;;8.02;2.70;;;;;;;;;;5068132;28;20114;-70
2023/08/14 01:55:01;;;;;;;7.07;2.95;;;;;;;;;;5066470;28;20135;-71
2023/08/14 01:57:30;;;;;;;7.35;2.80;;;;;;;;;;5060233;28;20041;-71
2023/08/14 01:59:57;;;;;;;4.82;2.85;;;;;;;;;;5065769;28;20053;-70
2023/08/14 02:02:24;;;;;;;3.30;2.38;;;;;;;;;;5063400;28;20056;-70
2023/08/14 02:04:51;;;;;;;4.30;2.30;;;;;;;;;;5060146;28;20455;-70
2023/08/14 02:07:19;;;;;;;7.53;2.70;;;;;;;;;;5064966;28;20384;-70
2023/08/14 02:09:46;;;;;;;3.85;2.30;;;;;;;;;;5068590;28;20408;-70
2023/08/14 02:12:13;;;;;;;7.88;2.60;;;;;;;;;;5058975;28;20041;-70
2023/08/14 02:14:42;;;;;;;4.18;2.17;;;;;;;;;;5054278;28;20519;-70
2023/08/14 02:17:09;;;;;;;4.00;2.70;;;;;;;;;;5067897;28;20507;-71
2023/08/14 02:19:36;;;;;;;5.25;2.38;;;;;;;;;;5064382;28;20169;-70
2023/08/14 02:22:04;;;;;;;6.88;2.58;;;;;;;;;;5067649;28;20057;-70
2023/08/14 02:24:31;;;;;;;4.90;2.58;;;;;;;;;;5065577;28;20079;-70
2023/08/14 02:26:58;;;;;;;4.22;2.38;;;;;;;;;;5067274;28;20044;-70
2023/08/14 02:29:25;;;;;;;5.95;2.33;;;;;;;;;;5067475;28;20048;-70
2023/08/14 02:31:54;;;;;;;3.67;2.60;;;;;;;;;;5063125;28;20048;-71
2023/08/14 02:34:34;;;;;;;7.90;2.40;;;;;;;;;;5064157;28;20519;-70
2023/08/14 02:37:02;;;;;;;4.65;2.58;;;;;;;;;;5059022;28;20056;-70
2023/08/14 02:39:29;;;;;;;6.88;2.38;;;;;;;;;;5068236;28;20485;-70
2023/08/14 02:41:56;;;;;;;5.05;2.20;;;;;;;;;;5067016;28;20581;-70
2023/08/14 02:44:23;;;;;;;3.85;2.38;;;;;;;;;;5070089;28;20740;-70
2023/08/14 02:46:51;;;;;;;6.07;2.17;;;;;;;;;;5069023;28;20474;-70
2023/08/14 02:49:19;;;;;;;7.20;2.42;;;;;;;;;;5072332;28;20053;-70
2023/08/14 02:51:46;;;;;;;4.05;2.25;;;;;;;;;;5069913;28;20074;-70
2023/08/14 02:54:14;;;;;;;5.30;2.30;;;;;;;;;;5061723;28;20044;-70
2023/08/14 02:56:41;;;;;;;5.53;2.88;;;;;;;;;;5067336;28;20062;-70
2023/08/14 02:59:08;;;;;;;4.60;2.20;;;;;;;;;;5066246;28;20488;-70
2023/08/14 03:01:36;;;;;;;7.32;2.10;;;;;;;;;;5058870;28;20049;-70
2023/08/14 03:04:03;;;;;;;5.93;2.25;;;;;;;;;;5066601;28;20144;-70
2023/08/14 03:06:32;;;;;;;3.15;2.17;;;;;;;;;;5062028;28;20057;-72
2023/08/14 03:08:59;;;;;;;7.60;2.72;;;;;;;;;;5069206;28;20044;-71
2023/08/14 03:11:27;;;;;;;8.32;2.40;;;;;;;;;;5060822;28;20527;-70
2023/08/14 03:13:54;;;;;;;4.95;2.70;;;;;;;;;;5066072;28;20414;-70
2023/08/14 03:16:21;;;;;;;6.53;2.35;;;;;;;;;;5058007;28;20044;-72
2023/08/14 03:18:48;;;;;;;4.60;2.60;;;;;;;;;;5065118;28;20891;-70
2023/08/14 03:21:16;;;;;;;6.15;2.60;;;;;;;;;;5067430;28;20511;-68
2023/08/14 03:23:45;;;;;;;9.13;2.47;;;;;;;;;;5060078;28;20068;-68
2023/08/14 03:26:14;;;;;;;5.55;2.40;;;;;;;;;;5070525;28;20067;-70
2023/08/14 03:28:41;;;;;;;4.50;2.45;;;;;;;;;;5067012;28;20407;-71
2023/08/14 03:31:08;;;;;;;3.50;2.40;;;;;;;;;;5071020;28;20052;-70
2023/08/14 03:33:35;;;;;;;4.85;2.70;;;;;;;;;;5063466;28;20052;-70
2023/08/14 03:36:03;;;;;;;5.07;2.42;;;;;;;;;;5065026;28;20569;-70
2023/08/14 03:38:30;;;;;;;7.00;2.88;;;;;;;;;;5062345;28;20056;-70
2023/08/14 03:40:59;;;;;;;6.97;2.92;;;;;;;;;;5064224;28;20518;-70
2023/08/14 03:43:27;;;;;;;9.23;2.50;;;;;;;;;;5064398;28;20040;-70
2023/08/14 03:45:54;;;;;;;5.15;3.03;;;;;;;;;;5066627;28;20063;-70
2023/08/14 03:48:21;;;;;;;4.57;2.75;;;;;;;;;;5062894;28;20438;-70
2023/08/14 03:50:48;;;;;;;7.28;3.28;;;;;;;;;;5068609;28;20045;-70
2023/08/14 03:53:15;;;;;;;7.05;2.40;;;;;;;;;;5065976;28;20040;-70
2023/08/14 03:55:43;;;;;;;5.95;3.28;;;;;;;;;;5065341;28;20107;-70
2023/08/14 03:58:11;;;;;;;9.10;2.85;;;;;;;;;;5067738;28;20457;-70
2023/08/14 04:00:38;;;;;;;5.05;2.90;;;;;;;;;;5069654;28;20521;-70
2023/08/14 04:03:06;;;;;;;8.48;2.78;;;;;;;;;;5062456;28;20041;-70
2023/08/14 04:05:37;;;;;;;5.32;2.40;;;;;;;;;;5065691;28;20399;-71
2023/08/14 04:08:04;;;;;;;8.60;3.25;;;;;;;;;;5068413;28;20047;-71
2023/08/14 04:10:32;;;;;;;5.95;2.92;;;;;;;;;;5062833;28;20515;-70
2023/08/14 04:12:59;;;;;;;7.72;3.20;;;;;;;;;;5054702;28;20087;-71
2023/08/14 04:15:28;;;;;;;6.25;3.05;;;;;;;;;;5063942;28;20476;-70
2023/08/14 04:17:55;;;;;;;5.85;2.80;;;;;;;;;;5063356;28;20053;-70
2023/08/14 04:20:22;;;;;;;7.63;2.90;;;;;;;;;;5067438;28;20511;-70
2023/08/14 04:22:49;;;;;;;5.35;3.20;;;;;;;;;;5065742;28;20053;-70
2023/08/14 04:25:18;;;;;;;5.35;2.65;;;;;;;;;;5066778;28;20136;-70
2023/08/14 04:27:46;;;;;;;7.03;2.80;;;;;;;;;;5068709;28;20109;-70
2023/08/14 04:30:13;;;;;;;8.63;2.85;;;;;;;;;;5066078;28;20102;-70
2023/08/14 04:32:42;;;;;;;8.80;3.10;;;;;;;;;;5067134;28;20060;-70
2023/08/14 04:35:10;;;;;;;8.23;3.33;;;;;;;;;;5067192;28;20568;-70
2023/08/14 04:37:37;;;;;;;5.32;3.17;;;;;;;;;;5064018;28;20096;-70
2023/08/14 04:40:05;;;;;;;5.47;2.95;;;;;;;;;;5067225;28;20059;-70
2023/08/14 04:42:33;;;;;;;5.53;3.05;;;;;;;;;;5069352;28;20052;-70
2023/08/14 04:45:00;;;;;;;6.97;3.22;;;;;;;;;;5066514;28;20480;-70
2023/08/14 04:47:28;;;;;;;5.97;3.08;;;;;;;;;;5057897;28;20041;-70
2023/08/14 04:49:56;;;;;;;8.05;3.05;;;;;;;;;;5066510;28;20049;-70
2023/08/14 04:52:24;;;;;;;8.63;2.92;;;;;;;;;;5062911;28;20051;-70
2023/08/14 04:54:51;;;;;;;5.40;2.75;;;;;;;;;;5060059;28;20574;-70
2023/08/14 04:57:18;;;;;;;5.05;3.08;;;;;;;;;;5065309;28;20045;-70
2023/08/14 04:59:46;;;;;;;3.72;2.63;;;;;;;;;;5064945;28;20100;-70
2023/08/14 05:02:13;;;;;;;5.65;3.22;;;;;;;;;;5066667;28;20064;-70
2023/08/14 05:04:40;;;;;;;5.03;2.92;;;;;;;;;;5067917;28;20052;-70
2023/08/14 05:07:09;;;;;;;5.35;3.10;;;;;;;;;;5060472;28;20056;-70
2023/08/14 05:09:36;;;;;;;9.45;3.65;;;;;;;;;;5067065;28;20052;-70
2023/08/14 05:12:03;;;;;;;6.05;3.28;;;;;;;;;;5066495;28;20060;-70
2023/08/14 05:14:31;;;;;;;7.00;2.70;;;;;;;;;;5053738;28;20056;-70
2023/08/14 05:16:58;;;;;;;5.68;3.22;;;;;;;;;;5057550;28;20048;-70
2023/08/14 05:19:25;;;;;;;5.05;3.58;;;;;;;;;;5067084;28;20047;-70
2023/08/14 05:21:52;;;;;;;6.97;3.20;;;;;;;;;;5067739;28;20155;-70
2023/08/14 05:24:21;;;;;;;5.55;2.92;;;;;;;;;;5064209;28;20521;-70
2023/08/14 05:26:48;;;;;;;5.15;3.40;;;;;;;;;;5059242;28;21207;-70
2023/08/14 05:29:15;;;;;;;5.78;3.60;;;;;;;;;;5064055;28;20049;-70
2023/08/14 05:31:43;;;;;;;6.03;3.20;;;;;;;;;;5063851;28;20048;-70
2023/08/14 05:34:10;;;;;;;6.57;3.15;;;;;;;;;;5060617;28;20052;-70
2023/08/14 05:36:37;;;;;;;8.88;3.47;;;;;;;;;;5065117;28;20044;-70
2023/08/14 05:39:05;;;;;;;6.28;3.70;;;;;;;;;;5058273;28;20045;-70
2023/08/14 05:41:34;;;;;;;6.43;3.55;;;;;;;;;;5063116;28;20059;-70
2023/08/14 05:44:01;;;;;;;5.03;3.40;;;;;;;;;;5067108;28;20506;-70
2023/08/14 05:46:28;;;;;;;9.02;3.83;;;;;;;;;;5062735;28;20044;-70
2023/08/14 05:48:56;;;;;;;5.22;3.53;;;;;;;;;;5058208;28;20805;-70
2023/08/14 05:51:23;;;;;;;5.45;3.28;;;;;;;;;;5062090;28;20109;-70
2023/08/14 05:53:50;;;;;;;7.47;3.42;;;;;;;;;;5067070;28;20051;-70
2023/08/14 05:56:17;;;;;;;5.85;3.60;;;;;;;;;;5063112;28;20049;-70
2023/08/14 05:58:46;;;;;;;7.40;3.78;;;;;;;;;;5068377;28;20051;-70
2023/08/14 06:01:14;;;;;;;6.13;3.50;;;;;;;;;;5065516;28;20048;-70
2023/08/14 06:03:41;;;;;;;7.15;3.65;;;;;;;;;;5072371;28;20050;-70
2023/08/14 06:06:09;;;;;;;6.18;3.33;;;;;;;;;;5066909;28;20076;-70
2023/08/14 06:08:36;;;;;;;6.60;3.30;;;;;;;;;;5071316;28;20472;-70
2023/08/14 06:11:03;;;;;;;11.43;3.60;;;;;;;;;;5068559;28;20052;-70
2023/08/14 06:13:31;;;;;;;9.68;3.67;;;;;;;;;;5070893;28;20044;-70
2023/08/14 06:16:00;;;;;;;6.90;3.50;;;;;;;;;;5063238;28;20041;-70
2023/08/14 06:18:27;;;;;;;7.50;3.20;;;;;;;;;;5066845;28;20473;-70
2023/08/14 06:20:54;;;;;;;5.82;2.40;;;;;;;;;;5065950;28;20075;-70
2023/08/14 06:23:21;;;;;;;5.65;2.90;;;;;;;;;;5063990;28;20491;-70
2023/08/14 06:25:49;;;;;;;4.55;2.80;;;;;;;;;;5067270;28;20047;-70
2023/08/14 06:28:16;;;;;;;9.65;3.13;;;;;;;;;;5069136;28;20076;-70
2023/08/14 06:30:43;;;;;;;6.05;3.10;;;;;;;;;;5071190;28;20063;-70
2023/08/14 06:33:12;;;;;;;5.72;2.90;;;;;;;;;;5070659;28;20061;-70
2023/08/14 06:35:39;;;;;;;4.55;2.55;;;;;;;;;;5069940;28;20152;-70
2023/08/14 06:38:06;;;;;;;5.93;2.60;;;;;;;;;;5068182;28;20057;-70
2023/08/14 06:40:33;;;;;;;5.40;2.75;;;;;;;;;;5070197;28;20056;-70
2023/08/14 06:43:02;;;;;;;5.03;2.75;;;;;;;;;;5058597;28;20149;-70
2023/08/14 06:45:30;;;;;;;3.70;2.22;;;;;;;;;;5061891;28;20143;-70
2023/08/14 06:47:57;;;;;;;5.38;2.47;;;;;;;;;;5069105;28;20041;-70
2023/08/14 06:50:26;;;;;;;5.72;2.58;;;;;;;;;;5070781;28;20391;-70
2023/08/14 06:52:53;;;;;;;4.75;2.50;;;;;;;;;;5068209;28;20077;-71
2023/08/14 06:55:21;;;;;;;4.78;2.53;;;;;;;;;;5069566;28;20094;-70
2023/08/14 06:57:48;;;;;;;8.95;2.67;;;;;;;;;;5061248;28;20122;-70
2023/08/14 07:00:15;;;;;;;9.77;2.45;;;;;;;;;;5069186;28;20044;-70
2023/08/14 07:02:45;;;;;;;4.68;2.00;;;;;;;;;;5068309;28;20091;-71
2023/08/14 07:05:12;;;;;;;8.45;3.33;;;;;;;;;;5068682;28;20044;-70
2023/08/14 07:07:41;;;;;;;4.47;2.50;;;;;;;;;;5069286;28;20114;-70
2023/08/14 07:10:09;;;;;;;4.75;2.67;;;;;;;;;;5070502;28;20404;-70
2023/08/14 07:12:36;;;;;;;7.50;2.97;;;;;;;;;;5066209;28;20057;-70
2023/08/14 07:15:08;;;;;;;5.85;3.08;;;;;;;;;;5068948;28;20515;-70
2023/08/14 07:17:35;;;;;;;5.00;2.83;;;;;;;;;;5066725;28;20049;-71
2023/08/14 07:20:04;;;;;;;6.93;2.70;;;;;;;;;;5071507;28;20056;-70
2023/08/14 07:22:31;;;;;;;4.22;2.50;;;;;;;;;;5069493;28;20056;-70
2023/08/14 07:25:00;;;;;;;8.63;2.72;;;;;;;;;;5071439;28;20123;-70
2023/08/14 07:27:27;;;;;;;6.32;2.97;;;;;;;;;;5067374;28;20044;-70
2023/08/14 07:29:54;;;;;;;4.25;2.42;;;;;;;;;;5054805;28;20061;-70
2023/08/14 07:32:22;;;;;;;5.43;2.67;;;;;;;;;;5066990;28;20045;-71
2023/08/14 07:34:49;;;;;;;7.88;3.00;;;;;;;;;;5059970;28;20056;-71
2023/08/14 07:37:16;;;;;;;5.60;2.70;;;;;;;;;;5067445;28;20040;-70
2023/08/14 07:39:43;;;;;;;5.13;2.45;;;;;;;;;;5069882;28;20530;-70
2023/08/14 07:42:12;;;;;;;4.22;2.22;;;;;;;;;;5062623;28;20416;-70
2023/08/14 07:44:39;;;;;;;7.10;2.30;;;;;;;;;;5069928;28;20075;-70
2023/08/14 07:47:07;;;;;;;3.75;2.13;;;;;;;;;;5069849;28;20139;-70
2023/08/14 07:49:34;;;;;;;5.07;2.47;;;;;;;;;;5068178;28;20056;-71
2023/08/14 07:52:01;;;;;;;6.93;2.45;;;;;;;;;;5066247;28;20071;-70
2023/08/14 07:54:29;;;;;;;4.80;2.33;;;;;;;;;;5067363;28;20476;-70
2023/08/14 07:56:56;;;;;;;6.10;2.20;;;;;;;;;;5062066;28;20061;-71
2023/08/14 07:59:25;;;;;;;4.22;2.20;;;;;;;;;;5067545;28;20437;-70
2023/08/14 08:01:52;;;;;;;6.35;2.05;;;;;;;;;;5059249;28;20041;-71
2023/08/14 08:04:19;;;;;;;3.92;2.00;;;;;;;;;;5059546;28;20049;-70
2023/08/14 08:06:46;;;;;;;4.28;1.75;;;;;;;;;;5063466;28;20382;-72
2023/08/14 08:09:14;;;;;;;3.05;1.42;;;;;;;;;;5068902;28;20048;-71
2023/08/14 08:11:41;;;;;;;2.95;1.50;;;;;;;;;;5062701;28;20484;-70
2023/08/14 08:14:08;;;;;;;7.13;1.73;;;;;;;;;;5067512;28;20044;-70
2023/08/14 08:16:37;;;;;;;6.63;1.55;;;;;;;;;;5064487;28;20059;-70
2023/08/14 08:19:04;;;;;;;3.40;1.30;;;;;;;;;;5065819;28;20055;-70
2023/08/14 08:21:32;;;;;;;5.10;1.80;;;;;;;;;;5068705;28;20049;-70
2023/08/14 08:24:00;;;;;;;6.07;1.50;;;;;;;;;;5063717;28;20471;-70
2023/08/14 08:26:27;;;;;;;3.92;1.73;;;;;;;;;;5064583;28;20052;-70
2023/08/14 08:28:54;;;;;;;2.92;1.27;;;;;;;;;;5064932;28;20071;-71
2023/08/14 08:31:22;;;;;;;4.78;1.45;;;;;;;;;;5064097;28;20044;-71
2023/08/14 08:33:50;;;;;;;5.00;1.60;;;;;;;;;;5060162;28;20123;-71
2023/08/14 08:36:18;;;;;;;2.72;1.15;;;;;;;;;;5060127;28;20152;-71
2023/08/14 08:38:45;;;;;;;5.32;1.60;;;;;;;;;;5063601;28;20564;-71
2023/08/14 08:41:14;;;;;;;4.25;1.63;;;;;;;;;;5062748;28;20360;-71
2023/08/14 08:43:41;;;;;;;2.80;1.60;;;;;;;;;;5060963;28;20047;-70
2023/08/14 08:46:09;;;;;;;2.75;1.25;;;;;;;;;;5063383;28;20055;-70
2023/08/14 08:48:38;;;;;;;3.80;1.20;;;;;;;;;;5056245;28;20055;-72
2023/08/14 08:51:07;;;;;;;3.60;1.27;;;;;;;;;;5055975;28;20067;-71
2023/08/14 08:53:35;;;;;;;5.30;1.33;;;;;;;;;;5062112;28;20056;-70
2023/08/14 08:56:02;;;;;;;2.80;1.20;;;;;;;;;;5063805;28;20416;-71
2023/08/14 08:58:29;;;;;;;2.28;1.05;;;;;;;;;;5058497;28;20048;-70
2023/08/14 09:00:57;;;;;;;3.58;1.27;;;;;;;;;;5066531;28;20162;-70
2023/08/14 09:03:24;;;;;;;2.80;1.20;;;;;;;;;;5059798;28;20044;-71
2023/08/14 09:05:52;;;;;;;2.55;1.20;;;;;;;;;;5063075;28;20055;-72
2023/08/14 09:08:20;;;;;;;5.47;1.40;;;;;;;;;;5062198;28;20055;-70
2023/08/14 09:10:47;;;;;;;2.97;1.10;;;;;;;;;;5059769;28;20048;-71
2023/08/14 09:13:15;;;;;;;1.80;1.10;;;;;;;;;;5064638;28;20040;-70
2023/08/14 09:15:43;;;;;;;5.32;1.33;;;;;;;;;;5061829;28;20483;-71
2023/08/14 09:18:11;;;;;;;2.45;0.95;;;;;;;;;;5068267;28;20048;-71
2023/08/14 09:20:39;;;;;;;2.83;1.00;;;;;;;;;;5056277;28;20488;-71
2023/08/14 09:23:11;;;;;;;3.47;1.00;;;;;;;;;;5065271;28;20055;-71
2023/08/14 09:25:41;;;;;;;1.92;0.80;;;;;;;;;;5058693;28;20044;-71
2023/08/14 09:28:08;;;;;;;1.33;0.90;;;;;;;;;;5067512;28;20067;-70
2023/08/14 09:30:37;;;;;;;5.30;1.10;;;;;;;;;;5056591;28;20114;-72
2023/08/14 09:33:08;;;;;;;5.25;0.90;;;;;;;;;;5061216;28;20537;-70
2023/08/14 09:35:35;;;;;;;2.55;0.90;;;;;;;;;;5065280;28;20067;-71
2023/08/14 09:38:02;;;;;;;5.47;1.15;;;;;;;;;;5063277;28;20055;-71
2023/08/14 09:40:30;;;;;;;2.15;0.88;;;;;;;;;;5064959;28;20048;-71
2023/08/14 09:42:58;;;;;;;4.22;1.20;;;;;;;;;;5067342;28;20053;-71
2023/08/14 09:45:28;;;;;;;2.92;0.77;;;;;;;;;;5063212;28;20092;-71
2023/08/14 09:48:00;;;;;;;2.45;0.80;;;;;;;;;;5056911;28;20420;-71
2023/08/14 09:50:29;;;;;;;3.67;1.10;;;;;;;;;;5057929;28;20052;-71
2023/08/14 09:52:57;;;;;;;1.88;0.90;;;;;;;;;;5063264;28;20056;-71
2023/08/14 09:55:26;;;;;;;2.35;0.88;;;;;;;;;;5066465;28;20533;-71
2023/08/14 09:57:54;;;;;;;2.40;1.15;;;;;;;;;;5060697;28;20049;-71
2023/08/14 10:00:23;;;;;;;4.10;0.80;;;;;;;;;;5059506;28;20431;-71
2023/08/14 10:02:50;;;;;;;1.75;0.90;;;;;;;;;;5057736;28;20058;-71
2023/08/14 10:05:19;;;;;;;2.78;0.70;;;;;;;;;;5059791;28;20055;-71
2023/08/14 10:07:46;;;;;;;2.08;0.80;;;;;;;;;;5063555;28;20048;-71
2023/08/14 10:10:14;;;;;;;3.22;0.80;;;;;;;;;;5056172;28;20056;-71
2023/08/14 10:12:45;;;;;;;2.50;0.93;;;;;;;;;;5056343;28;20124;-71
2023/08/14 10:15:14;;;;;;;1.02;0.60;;;;;;;;;;5068411;28;20102;-71
2023/08/14 10:17:45;;;;;;;2.03;0.75;;;;;;;;;;5064780;28;20495;-71
2023/08/14 10:20:16;;;;;;;1.90;0.98;;;;;;;;;;5055068;28;20049;-71
2023/08/14 10:22:43;;;;;;;2.17;0.75;;;;;;;;;;5060421;28;20052;-71
2023/08/14 10:25:11;;;;;;;1.48;0.77;;;;;;;;;;5065079;28;20072;-71
2023/08/14 10:27:38;;;;;;;1.85;0.75;;;;;;;;;;5058780;28;20158;-71
2023/08/14 10:30:06;;;;;;;1.33;0.80;;;;;;;;;;5055746;28;20057;-71
2023/08/14 10:32:34;;;;;;;1.80;0.70;;;;;;;;;;5059427;28;20430;-71
2023/08/14 10:35:03;;;;;;;3.55;0.80;;;;;;;;;;5062078;28;20060;-71
2023/08/14 10:37:41;;;;;;;1.98;1.00;;;;;;;;;;5063536;28;20049;-71
2023/08/14 10:40:15;;;;;;;2.97;0.80;;;;;;;;;;5057348;28;20053;-71
2023/08/14 10:42:43;;;;;;;2.33;0.80;;;;;;;;;;5055527;28;20053;-71
2023/08/14 10:45:10;;;;;;;2.83;0.88;;;;;;;;;;5056523;28;20045;-71
2023/08/14 10:47:39;;;;;;;3.08;0.90;;;;;;;;;;5061809;28;20053;-72
2023/08/14 10:50:15;;;;;;;3.80;1.00;;;;;;;;;;5063867;28;20403;-71
2023/08/14 10:52:44;;;;;;;3.53;0.80;;;;;;;;;;5063085;28;20052;-71
2023/08/14 10:55:16;;;;;;;2.90;0.80;;;;;;;;;;5069968;28;20414;-73
2023/08/14 10:57:43;;;;;;;2.00;0.75;;;;;;;;;;5068522;28;20048;-71
2023/08/14 11:00:20;;;;;;;2.28;0.75;;;;;;;;;;5071253;28;20040;-71
2023/08/14 11:02:50;;;;;;;3.47;1.00;;;;;;;;;;5064332;28;20067;-71
2023/08/14 11:05:19;;;;;;;1.98;0.73;;;;;;;;;;5070815;28;20506;-71
2023/08/14 11:07:59;;;;;;;1.77;0.63;;;;;;;;;;5070340;28;20575;-71
2023/08/14 11:10:27;;;;;;;2.08;0.82;;;;;;;;;;5067430;28;20056;-71
2023/08/14 11:12:55;;;;;;;2.15;0.98;;;;;;;;;;5069002;28;20083;-71
2023/08/14 11:15:22;;;;;;;1.23;0.57;;;;;;;;;;5061717;28;20057;-71
2023/08/14 11:17:50;;;;;;;4.40;0.82;;;;;;;;;;5067732;28;20057;-71
2023/08/14 11:20:17;;;;;;;3.15;1.05;;;;;;;;;;5069216;28;20067;-71
2023/08/14 11:22:46;;;;;;;2.65;0.93;;;;;;;;;;5070294;28;20542;-72
2023/08/14 11:25:14;;;;;;;2.30;0.95;;;;;;;;;;5069665;28;20053;-72
2023/08/14 11:27:41;;;;;;;1.40;0.70;;;;;;;;;;5063407;28;20037;-71
2023/08/14 11:30:10;;;;;;;3.22;0.60;;;;;;;;;;5068648;28;20084;-72
2023/08/14 11:32:37;;;;;;;3.70;1.00;;;;;;;;;;5069319;28;20129;-72
2023/08/14 11:35:05;;;;;;;3.40;1.00;;;;;;;;;;5068484;28;20056;-72
2023/08/14 11:37:33;;;;;;;3.30;1.00;;;;;;;;;;5059931;28;20048;-72
2023/08/14 11:40:04;;;;;;;1.58;0.82;;;;;;;;;;5067154;28;20052;-73
2023/08/14 11:42:32;;;;;;;3.15;1.05;;;;;;;;;;5066762;28;20119;-72
2023/08/14 11:45:03;;;;;;;3.00;0.82;;;;;;;;;;5067652;28;20118;-72
2023/08/14 11:47:31;;;;;;;4.05;1.05;;;;;;;;;;5068670;28;20061;-72
2023/08/14 11:49:58;;;;;;;2.10;0.90;;;;;;;;;;5066078;28;20053;-71
2023/08/14 11:52:27;;;;;;;4.22;1.40;;;;;;;;;;5067264;28;20076;-72
2023/08/14 11:54:54;;;;;;;2.55;1.02;;;;;;;;;;5066845;28;20063;-72
2023/08/14 11:57:25;;;;;;;1.10;0.80;;;;;;;;;;5066103;28;20044;-72
2023/08/14 11:59:52;;;;;;;2.25;1.30;;;;;;;;;;5060438;28;20044;-72
2023/08/14 12:02:20;;;;;;;3.13;1.10;;;;;;;;;;5064297;28;20381;-72
2023/08/14 12:04:47;;;;;;;4.28;1.20;;;;;;;;;;5062174;28;20059;-72
2023/08/14 12:07:19;;;;;;;2.42;0.90;;;;;;;;;;5069770;28;20100;-72
2023/08/14 12:09:46;;;;;;;3.05;1.10;;;;;;;;;;5068184;28;20048;-70
2023/08/14 12:12:14;;;;;;;1.88;1.00;;;;;;;;;;5067187;28;20048;-72
2023/08/14 12:14:43;;;;;;;1.45;0.80;;;;;;;;;;5067123;28;20105;-72
2023/08/14 12:17:11;;;;;;;1.65;0.90;;;;;;;;;;5067932;28;20051;-72
2023/08/14 12:19:39;;;;;;;2.35;1.05;;;;;;;;;;5067741;28;20051;-72
2023/08/14 12:22:07;;;;;;;2.75;1.27;;;;;;;;;;5061070;28;20134;-72
2023/08/14 12:24:39;;;;;;;2.88;1.27;;;;;;;;;;5069521;28;20105;-72
2023/08/14 12:27:15;;;;;;;2.92;1.13;;;;;;;;;;5059806;28;20178;-72
2023/08/14 12:29:44;;;;;;;3.67;1.10;;;;;;;;;;5065637;28;20070;-72
2023/08/14 12:32:11;;;;;;;2.67;1.00;;;;;;;;;;5057716;28;20072;-71
2023/08/14 12:34:38;;;;;;;2.83;1.02;;;;;;;;;;5068762;28;20049;-71
2023/08/14 12:37:06;;;;;;;2.22;1.08;;;;;;;;;;5066969;28;20051;-71
2023/08/14 12:39:34;;;;;;;1.92;1.00;;;;;;;;;;5067298;28;20051;-72
2023/08/14 12:42:01;;;;;;;2.05;0.90;;;;;;;;;;5071119;28;20048;-72
2023/08/14 12:44:28;;;;;;;1.65;0.90;;;;;;;;;;5065442;28;20049;-71
2023/08/14 12:46:57;;;;;;;1.58;1.10;;;;;;;;;;5062298;28;20044;-72
2023/08/14 12:49:24;;;;;;;1.00;0.90;;;;;;;;;;5062365;28;20048;-72
2023/08/14 12:51:53;;;;;;;2.13;1.08;;;;;;;;;;5065909;28;20055;-72
2023/08/14 12:54:20;;;;;;;2.47;1.00;;;;;;;;;;5066668;28;20052;-71
2023/08/14 12:56:47;;;;;;;2.10;1.25;;;;;;;;;;5066200;28;20045;-71
2023/08/14 12:59:15;;;;;;;3.70;1.27;;;;;;;;;;5067781;28;20045;-71
2023/08/14 13:01:42;;;;;;;1.80;0.95;;;;;;;;;;5066178;28;20044;-71
2023/08/14 13:04:11;;;;;;;1.75;1.10;;;;;;;;;;5060523;28;20056;-71
2023/08/14 13:06:38;;;;;;;2.65;1.00;;;;;;;;;;5061108;28;20067;-71
2023/08/14 13:09:06;;;;;;;1.88;0.80;;;;;;;;;;5061417;28;20040;-71
2023/08/14 13:11:34;;;;;;;1.75;1.02;;;;;;;;;;5062006;28;20063;-71
2023/08/14 13:14:01;;;;;;;3.75;1.00;;;;;;;;;;5064605;28;20163;-71
2023/08/14 13:16:29;;;;;;;3.88;1.20;;;;;;;;;;5063161;28;20040;-71
2023/08/14 13:18:56;;;;;;;2.15;0.98;;;;;;;;;;5066114;28;20052;-69
2023/08/14 13:21:25;;;;;;;3.00;1.08;;;;;;;;;;5065128;28;20036;-71
2023/08/14 13:23:52;;;;;;;2.17;1.00;;;;;;;;;;5065976;28;20767;-70
2023/08/14 13:26:19;;;;;;;3.40;1.10;;;;;;;;;;5067403;28;20063;-71
2023/08/14 13:28:46;;;;;;;2.42;1.20;;;;;;;;;;5064347;28;20048;-70
2023/08/14 13:31:14;;;;;;;2.17;1.20;;;;;;;;;;5050311;28;20519;-68
2023/08/14 13:33:42;;;;;;;2.88;1.20;;;;;;;;;;5064328;28;20060;-68
2023/08/14 13:36:09;;;;;;;3.08;1.10;;;;;;;;;;5064377;28;20076;-68
2023/08/14 13:38:38;;;;;;;3.22;1.13;;;;;;;;;;5062269;28;20049;-69
2023/08/14 13:41:05;;;;;;;2.22;1.10;;;;;;;;;;5066585;28;20102;-68
2023/08/14 13:43:32;;;;;;;2.92;1.30;;;;;;;;;;5057277;28;20488;-69
2023/08/14 13:46:00;;;;;;;1.70;1.02;;;;;;;;;;5066621;28;20403;-68
2023/08/14 13:48:27;;;;;;;3.83;1.30;;;;;;;;;;5060527;28;20058;-69
2023/08/14 13:50:54;;;;;;;2.28;1.40;;;;;;;;;;5067518;28;20056;-68
2023/08/14 13:53:21;;;;;;;1.52;1.02;;;;;;;;;;5059269;28;20052;-68
2023/08/14 13:55:50;;;;;;;7.15;1.83;;;;;;;;;;5063457;28;20048;-68
2023/08/14 13:58:17;;;;;;;2.00;1.20;;;;;;;;;;5066487;28;20048;-68
2023/08/14 14:00:44;;;;;;;2.83;1.10;;;;;;;;;;5063017;28;20407;-68
2023/08/14 14:03:12;;;;;;;3.28;1.40;;;;;;;;;;5064686;28;20129;-68
2023/08/14 14:05:39;;;;;;;2.80;1.30;;;;;;;;;;5063586;28;20048;-68
2023/08/14 14:08:06;;;;;;;2.97;1.10;;;;;;;;;;5065166;28;20052;-68
2023/08/14 14:10:33;;;;;;;5.13;1.48;;;;;;;;;;5064977;28;20045;-68
2023/08/14 14:13:04;;;;;;;3.70;1.60;;;;;;;;;;5060870;28;20048;-68
2023/08/14 14:15:31;;;;;;;4.95;1.40;;;;;;;;;;5057120;28;20076;-69
2023/08/14 14:17:59;;;;;;;2.67;1.40;;;;;;;;;;5068183;28;20041;-68
2023/08/14 14:20:26;;;;;;;1.85;1.30;;;;;;;;;;5066756;28;20044;-68
2023/08/14 14:22:53;;;;;;;3.75;1.65;;;;;;;;;;5069966;28;20087;-68
2023/08/14 14:25:20;;;;;;;3.95;1.40;;;;;;;;;;5070032;28;20054;-68
2023/08/14 14:27:48;;;;;;;3.63;1.83;;;;;;;;;;5067374;28;20068;-68
2023/08/14 14:30:16;;;;;;;4.55;1.52;;;;;;;;;;5071266;28;20048;-68
2023/08/14 14:32:44;;;;;;;5.93;1.92;;;;;;;;;;5071086;28;20491;-68
2023/08/14 14:35:13;;;;;;;5.05;1.60;;;;;;;;;;5062489;28;20056;-68
2023/08/14 14:37:41;;;;;;;2.60;1.45;;;;;;;;;;5066882;28;20453;-68
2023/08/14 14:40:09;;;;;;;3.67;1.50;;;;;;;;;;5061296;28;20495;-68
2023/08/14 14:42:36;;;;;;;2.00;1.38;;;;;;;;;;5069780;28;20136;-68
2023/08/14 14:45:05;;;;;;;3.15;1.70;;;;;;;;;;5058841;28;20052;-68
2023/08/14 14:47:33;;;;;;;4.57;1.70;;;;;;;;;;5069092;28;20049;-68